Peotone Weather

Nearby METAR Reports

 

KIGQ - Lansing, Illinois, USA
Distance from station: NE 19mi, 30km
Updated: Tue, 07-Apr-2020 3:55am CDT
Mist, Overcast
Mist, Overcast
 Wind from calm
Wind: Calm
Temperature: 55°F , 13°C
Dew Point: 55°F , 13°C
Humidity: 100%
Barometer: 29.83 inHg , 1010.2 hPa
Summary: Mist
Clouds: Overcast
Visibility: 5 miles , 8 km
Cloud details: Mostly cloudy 4800 ft
Overcast 5500 ft
2020/04/07 08:55 KIGQ 070855Z AUTO 00000KT 5SM BR BKN048 OVC055 13/13 A2983 RMK AO2 LTG DSNT E 60135 T01300130
KIKK - Kankakee, Illinois, USA
Distance from station: S 19mi, 30km
Updated: Tue, 07-Apr-2020 3:55am CDT
Overcast
Overcast
 Wind from calm
Wind: Calm
Temperature: 59°F , 15°C
Dew Point: 54°F , 12°C
Humidity: 82%
Barometer: 29.84 inHg , 1010.5 hPa
Clouds: Overcast
Visibility: 10 miles , 16 km
Cloud details: Mostly cloudy 4300 ft
Mostly cloudy 6500 ft
Overcast 7000 ft
2020/04/07 08:55 KIKK 070855Z AUTO 00000KT 10SM BKN043 BKN065 OVC070 15/12 A2984 RMK AO2 LTG DSNT E T01500117
 
KSJC - Joliet, Illinois, USA
Distance from station: WNW 24mi, 38km
Updated: Tue, 07-Apr-2020 3:53am CDT
Clear
Clear
 Wind from E
Wind: E 5 mph , 7 km/h
Temperature: 43°F , 6°C
Wind Chill: 40°F , 4°C
Dew Point: 39°F , 4°C
Humidity: 87%
Barometer: 30.07 inHg , 1018.3 hPa
Clouds: Clear
Visibility: 10 miles , 16 km
2020/04/07 08:53 KSJC 070853Z AUTO 10004KT 10SM CLR 06/04 A3007 RMK AO2 SLP180 T00610039 51013 $
KLOT - Romeoville, Illinois, USA
Distance from station: NW 26mi, 41km
Updated: Tue, 07-Apr-2020 3:55am CDT
Mist, Overcast
Mist, Overcast
 Wind from SSE
Wind: SSE 6 mph , 9 km/h
Temperature: 55°F , 13°C
Dew Point: 55°F , 13°C
Humidity: 100%
Barometer: 29.81 inHg , 1009.5 hPa
Summary: Mist
Clouds: Overcast
Visibility: 4 miles , 6 km
Cloud details: Partly cloudy 4300 ft
Mostly cloudy 5000 ft
Overcast 9500 ft
2020/04/07 08:55 KLOT 070855Z AUTO 15005KT 4SM BR SCT043 BKN050 OVC095 13/13 A2981 RMK AO2 LTG DSNT E 60009 T01300130
 
KMDW - Midway Airport Chicago, Illinois, USA
Distance from station: N 31mi, 50km
Updated: Tue, 07-Apr-2020 3:53am CDT
Mist, Overcast
Mist, Overcast
 Wind from SSE
Wind: SSE 5 mph , 7 km/h
Temperature: 57°F , 14°C
Dew Point: 57°F , 14°C
Humidity: 100%
Barometer: 29.81 inHg , 1009.5 hPa
Summary: Mist
Clouds: Overcast
Visibility: 5 miles , 8 km
Cloud details: Few Clouds 4900 ft
Overcast 6000 ft
2020/04/07 08:53 KMDW 070853Z 16004KT 5SM BR FEW049 OVC060 14/14 A2981 RMK AO2 SLP093 60009 T01390139 58024 $
KC09 - Morris, Illinois, USA
Distance from station: W 34mi, 54km
Updated: Mon, 06-Apr-2020 2:55pm CDT
NOT Current
Overcast
Overcast
 Wind from SW
Wind: SW 7 mph , 11 km/h
Temperature: 64°F , 18°C
Dew Point: 48°F , 9°C
Humidity: 56%
Barometer: 29.97 inHg , 1014.9 hPa
Clouds: Overcast
Visibility: 10 miles , 16 km
Cloud details: Overcast 3700 ft
2020/04/06 19:55 KC09 061955Z AUTO 22006KT 10SM OVC037 18/09 A2997 RMK AO2 T01750087

Metar display script from Saratoga-Weather.org